Time;durP1;ratioP1;P1;durP2;ratioP2;P2;SDS_P1;SDS_P2;PMS_P1;PMS_P2;Temp;Humidity;BMP_temperature;BMP_pressure;BME280_temperature;BME280_humidity;BME280_pressure;Samples;Min_cycle;Max_cycle;Signal;HPM_P1;HPM_P2
2023/09/13 00:00:09;;;;;;;3.77;3.33;;;24.00;67.00;23.50;96256.00;;;;5092645;28;20198;-85
2023/09/13 00:02:36;;;;;;;4.90;3.60;;;24.00;67.10;23.50;96257.00;;;;5078154;28;20253;-85
2023/09/13 00:05:07;;;;;;;3.90;3.60;;;24.00;67.90;23.50;96262.00;;;;5093453;28;20206;-85
2023/09/13 00:07:34;;;;;;;4.80;3.10;;;24.00;67.30;23.50;96268.00;;;;5092339;28;20200;-85
2023/09/13 00:10:02;;;;;;;4.50;4.10;;;24.00;67.40;23.50;96267.00;;;;5094978;28;20204;-85
2023/09/13 00:12:29;;;;;;;4.17;3.67;;;24.00;67.40;23.50;96259.00;;;;5097344;28;20694;-85
2023/09/13 00:14:57;;;;;;;4.40;3.53;;;24.00;67.30;23.50;96264.00;;;;5093317;28;20218;-85
2023/09/13 00:17:27;;;;;;;4.17;3.87;;;23.90;68.10;23.50;96263.00;;;;5088533;28;20202;-85
2023/09/13 00:19:57;;;;;;;3.53;3.33;;;23.90;67.30;23.50;96260.00;;;;5090679;28;20306;-85
2023/09/13 00:22:24;;;;;;;4.10;3.40;;;24.00;67.30;23.50;96267.00;;;;5089012;28;20194;-85
2023/09/13 00:24:51;;;;;;;3.73;3.43;;;24.00;67.30;23.50;96259.00;;;;5098203;28;20229;-85
2023/09/13 00:27:18;;;;;;;3.47;3.17;;;24.00;67.30;23.50;96251.00;;;;5087237;28;20203;-85
2023/09/13 00:29:46;;;;;;;3.50;3.30;;;24.00;67.10;23.50;96251.00;;;;5084339;28;20222;-85
2023/09/13 00:32:14;;;;;;;3.50;3.30;;;24.00;67.00;23.50;96248.00;;;;5093085;28;20295;-85
2023/09/13 00:34:45;;;;;;;3.43;3.13;;;24.00;66.80;23.50;96250.00;;;;5107430;28;20223;-85
2023/09/13 00:37:12;;;;;;;3.80;3.00;;;24.00;66.70;23.50;96253.00;;;;5095365;28;20218;-85
2023/09/13 00:39:39;;;;;;;3.30;3.00;;;24.00;66.40;23.50;96253.00;;;;5094235;28;20191;-85
2023/09/13 00:42:07;;;;;;;4.60;2.73;;;24.00;66.40;23.50;96257.00;;;;5090588;28;20203;-85
2023/09/13 00:44:34;;;;;;;2.60;2.40;;;24.00;66.10;23.50;96253.00;;;;5079284;28;20289;-85
2023/09/13 00:47:01;;;;;;;2.60;2.40;;;24.00;65.90;23.50;96263.00;;;;5083645;28;20211;-85
2023/09/13 00:49:29;;;;;;;2.47;2.37;;;24.00;65.60;23.50;96259.00;;;;5089235;28;20563;-85
2023/09/13 00:51:59;;;;;;;2.67;2.40;;;24.00;65.40;23.50;96260.00;;;;5094755;28;20202;-85
2023/09/13 00:54:29;;;;;;;2.17;2.07;;;24.00;65.30;23.50;96260.00;;;;5094597;28;20222;-85
2023/09/13 00:56:58;;;;;;;2.70;2.50;;;24.00;65.00;23.50;96261.00;;;;5092169;28;20298;-85
2023/09/13 00:59:26;;;;;;;2.50;2.30;;;24.00;65.00;23.50;96260.00;;;;5094665;28;20198;-85
2023/09/13 01:01:54;;;;;;;2.30;2.00;;;24.00;65.00;23.50;96264.00;;;;5089337;28;20199;-85
2023/09/13 01:04:21;;;;;;;2.03;1.93;;;24.00;65.00;23.50;96269.00;;;;5091312;28;20273;-85
2023/09/13 01:06:49;;;;;;;3.33;2.60;;;24.00;64.90;23.60;96275.00;;;;5084174;28;20217;-85
2023/09/13 01:09:19;;;;;;;2.20;2.00;;;24.00;64.80;23.50;96264.00;;;;5089315;28;20216;-85
2023/09/13 01:11:48;;;;;;;2.53;2.33;;;24.00;64.70;23.50;96272.00;;;;5071638;28;20207;-85
2023/09/13 01:14:16;;;;;;;2.93;2.10;;;24.00;64.50;23.60;96284.00;;;;5091812;28;20254;-85
2023/09/13 01:16:52;;;;;;;2.97;2.20;;;24.00;64.40;23.60;96282.00;;;;5092397;28;20218;-85
2023/09/13 01:19:50;;;;;;;2.03;1.90;;;24.00;64.50;23.60;96282.00;;;;5094464;28;20195;-85
2023/09/13 01:22:58;;;;;;;1.77;1.67;;;24.00;64.40;23.50;96278.00;;;;5094272;28;20553;-85
2023/09/13 01:26:32;;;;;;;1.93;1.67;;;24.00;64.30;23.50;96278.00;;;;5086909;28;20225;-86
2023/09/13 01:29:02;;;;;;;1.93;1.83;;;24.00;63.90;23.50;96281.00;;;;5054877;28;20191;-85
2023/09/13 01:31:31;;;;;;;2.00;1.80;;;24.00;63.70;23.50;96277.00;;;;5094138;27;20221;-86
2023/09/13 01:33:58;;;;;;;3.20;1.60;;;24.00;63.70;23.50;96273.00;;;;5092594;28;20232;-85
2023/09/13 01:36:28;;;;;;;2.70;1.97;;;24.00;63.60;23.40;96272.00;;;;5086256;28;20223;-85
2023/09/13 01:38:56;;;;;;;1.70;1.60;;;24.00;63.70;23.40;96284.00;;;;5086533;28;20200;-86
2023/09/13 01:41:31;;;;;;;1.80;1.70;;;23.90;63.50;23.40;96282.00;;;;5094080;28;20194;-85
2023/09/13 01:44:00;;;;;;;3.33;1.57;;;23.90;63.50;23.40;96282.00;;;;5093460;28;20289;-86
2023/09/13 01:46:35;;;;;;;2.00;1.80;;;23.90;63.60;23.30;96283.00;;;;5093786;28;20645;-85
2023/09/13 01:49:04;;;;;;;2.27;2.07;;;23.90;63.70;23.30;96275.00;;;;5093686;28;20201;-86
2023/09/13 01:51:33;;;;;;;2.03;1.77;;;23.90;63.80;23.30;96282.00;;;;5088194;28;20198;-85
2023/09/13 01:54:01;;;;;;;2.10;1.93;;;23.80;63.80;23.30;96276.00;;;;5092429;28;20191;-86
2023/09/13 01:56:28;;;;;;;1.93;1.83;;;23.80;64.00;23.20;96275.00;;;;5073448;28;20222;-85
2023/09/13 01:58:55;;;;;;;2.60;2.10;;;23.80;64.20;23.20;96271.00;;;;5071204;28;20583;-85
2023/09/13 02:01:24;;;;;;;2.30;2.10;;;23.70;64.20;23.20;96266.00;;;;5060965;28;20195;-86
2023/09/13 02:03:51;;;;;;;1.87;1.73;;;23.70;64.30;23.20;96274.00;;;;5089429;28;20655;-85
2023/09/13 02:06:18;;;;;;;2.63;2.20;;;23.70;64.40;23.10;96271.00;;;;5090902;28;20236;-85
2023/09/13 02:08:47;;;;;;;2.10;1.90;;;23.70;64.40;23.10;96282.00;;;;5089116;28;20192;-85
2023/09/13 02:11:14;;;;;;;2.30;2.03;;;23.60;64.40;23.10;96280.00;;;;5074042;28;20595;-85
2023/09/13 02:13:41;;;;;;;1.97;1.87;;;23.60;64.50;23.00;96292.00;;;;5078197;28;20194;-86
2023/09/13 02:16:08;;;;;;;4.37;2.10;;;23.60;64.50;23.00;96297.00;;;;5084412;28;20219;-85
2023/09/13 02:18:38;;;;;;;2.67;2.13;;;23.60;64.60;23.00;96296.00;;;;5091559;28;20194;-85
2023/09/13 02:21:06;;;;;;;2.40;2.27;;;23.50;64.80;23.00;96297.00;;;;5089978;28;20195;-85
2023/09/13 02:23:33;;;;;;;3.33;2.10;;;23.50;64.90;22.90;96301.00;;;;5093540;28;20898;-85
2023/09/13 02:26:00;;;;;;;2.50;2.33;;;23.50;65.00;22.90;96308.00;;;;5084649;28;20309;-85
2023/09/13 02:28:29;;;;;;;3.87;2.40;;;23.40;65.10;22.90;96311.00;;;;5093360;28;20201;-85
2023/09/13 02:30:57;;;;;;;2.60;2.40;;;23.40;65.30;22.80;96313.00;;;;5094064;28;20277;-85
2023/09/13 02:33:25;;;;;;;2.87;2.57;;;23.40;65.40;22.80;96318.00;;;;5091608;28;20278;-85
2023/09/13 02:35:53;;;;;;;3.27;2.70;;;23.40;65.60;22.80;96320.00;;;;5093100;28;20249;-85
2023/09/13 02:38:20;;;;;;;3.13;2.87;;;23.30;65.70;22.80;96319.00;;;;5093025;28;20197;-85
2023/09/13 02:40:49;;;;;;;2.90;2.67;;;23.30;65.70;22.80;96331.00;;;;5092201;28;20213;-85
2023/09/13 02:43:17;;;;;;;3.30;2.67;;;23.30;65.90;22.80;96332.00;;;;5081962;28;20223;-85
2023/09/13 02:45:44;;;;;;;3.00;2.80;;;23.30;66.10;22.80;96328.00;;;;5078550;28;20231;-85
2023/09/13 02:48:13;;;;;;;2.90;2.70;;;23.30;66.10;22.70;96330.00;;;;5093400;28;20207;-85
2023/09/13 02:50:42;;;;;;;3.57;3.27;;;23.30;67.00;22.70;96338.00;;;;5082341;28;20210;-86
2023/09/13 02:53:10;;;;;;;3.67;2.90;;;23.20;66.30;22.70;96325.00;;;;5090218;28;20651;-85
2023/09/13 02:55:38;;;;;;;5.17;3.40;;;23.20;66.40;22.70;96329.00;;;;5077265;28;20227;-85
2023/09/13 02:58:05;;;;;;;3.07;2.77;;;23.20;66.50;22.70;96326.00;;;;5064086;28;20199;-85
2023/09/13 03:00:34;;;;;;;3.50;3.20;;;23.20;66.50;22.70;96330.00;;;;5091204;28;20199;-85
2023/09/13 03:03:03;;;;;;;3.03;2.60;;;23.20;66.50;22.70;96330.00;;;;5092275;28;20573;-85
2023/09/13 03:05:31;;;;;;;3.03;2.73;;;23.20;66.70;22.70;96342.00;;;;5081930;28;20219;-85
2023/09/13 03:07:59;;;;;;;3.13;2.93;;;23.20;66.70;22.70;96324.00;;;;5088987;28;20197;-84
2023/09/13 03:10:28;;;;;;;3.03;2.80;;;23.20;66.70;22.70;96330.00;;;;5082576;28;20238;-85
2023/09/13 03:12:56;;;;;;;3.30;3.00;;;23.20;66.80;22.70;96318.00;;;;5090813;28;20192;-85
2023/09/13 03:15:23;;;;;;;3.30;3.00;;;23.20;66.80;22.70;96331.00;;;;5082558;28;20305;-84
2023/09/13 03:17:50;;;;;;;3.40;3.10;;;23.20;66.80;22.60;96344.00;;;;5089234;28;20195;-84
2023/09/13 03:20:17;;;;;;;3.07;2.87;;;23.20;66.80;22.60;96343.00;;;;5074660;28;20207;-85
2023/09/13 03:22:45;;;;;;;3.80;3.50;;;23.10;66.80;22.60;96355.00;;;;5084557;28;20209;-85
2023/09/13 03:25:12;;;;;;;2.90;2.70;;;23.10;66.80;22.60;96351.00;;;;5079977;28;20237;-85
2023/09/13 03:27:41;;;;;;;2.97;2.77;;;23.10;66.80;22.60;96342.00;;;;5071759;28;20196;-85
2023/09/13 03:30:10;;;;;;;4.00;2.67;;;23.10;66.80;22.60;96345.00;;;;5070336;28;20276;-85
2023/09/13 03:32:37;;;;;;;2.63;2.43;;;23.10;66.80;22.60;96342.00;;;;5085273;28;20194;-85
2023/09/13 03:35:05;;;;;;;3.07;2.87;;;23.10;66.90;22.60;96345.00;;;;5083332;28;20221;-85
2023/09/13 03:37:33;;;;;;;3.07;2.87;;;23.10;66.90;22.60;96333.00;;;;5070421;28;20208;-85
2023/09/13 03:40:00;;;;;;;2.70;2.50;;;23.10;67.00;22.60;96329.00;;;;5089239;28;20192;-85
2023/09/13 03:42:27;;;;;;;3.43;2.40;;;23.10;67.00;22.60;96319.00;;;;5092352;28;20197;-85
2023/09/13 03:44:56;;;;;;;2.80;2.60;;;23.10;67.00;22.60;96314.00;;;;5087952;28;20201;-85
2023/09/13 03:47:24;;;;;;;2.60;2.40;;;23.00;66.90;22.60;96321.00;;;;5090506;28;20280;-85
2023/09/13 03:49:51;;;;;;;2.83;2.57;;;23.10;67.00;22.60;96322.00;;;;5089799;28;20189;-85
2023/09/13 03:52:18;;;;;;;2.60;2.40;;;23.00;66.80;22.60;96324.00;;;;5082186;28;20203;-85
2023/09/13 03:54:45;;;;;;;3.13;2.83;;;23.00;66.80;22.60;96331.00;;;;5081368;28;20201;-85
2023/09/13 03:57:13;;;;;;;3.03;2.73;;;23.10;66.90;22.50;96319.00;;;;5069575;28;20760;-84
2023/09/13 03:59:40;;;;;;;2.87;2.67;;;23.10;67.60;22.50;96317.00;;;;5079532;28;20661;-86
2023/09/13 04:02:09;;;;;;;2.60;2.40;;;23.00;66.80;22.50;96320.00;;;;5082375;28;20203;-85
2023/09/13 04:04:36;;;;;;;3.17;2.70;;;23.00;66.80;22.50;96330.00;;;;5099230;28;20191;-85
2023/09/13 04:07:04;;;;;;;2.97;2.67;;;23.10;66.90;22.50;96325.00;;;;5091650;28;20213;-85
2023/09/13 04:09:32;;;;;;;4.13;2.70;;;23.00;66.80;22.50;96321.00;;;;5113769;28;20226;-85
2023/09/13 04:11:59;;;;;;;2.40;2.20;;;23.00;66.90;22.50;96328.00;;;;5111025;28;20197;-85
2023/09/13 04:14:26;;;;;;;2.90;2.70;;;23.00;66.90;22.50;96325.00;;;;5099647;28;20568;-85
2023/09/13 04:16:53;;;;;;;2.90;2.70;;;23.00;66.90;22.50;96327.00;;;;5091152;28;20223;-85
2023/09/13 04:19:21;;;;;;;2.70;2.50;;;23.00;67.00;22.50;96331.00;;;;5091259;28;20645;-85
2023/09/13 04:21:49;;;;;;;3.60;2.70;;;23.00;67.10;22.50;96330.00;;;;5088587;28;20199;-86
2023/09/13 04:24:16;;;;;;;2.67;2.37;;;23.00;67.10;22.50;96321.00;;;;5076107;28;20564;-85
2023/09/13 04:26:43;;;;;;;2.33;2.23;;;22.90;67.00;22.50;96326.00;;;;5076436;28;20229;-85
2023/09/13 04:29:10;;;;;;;3.00;2.73;;;23.00;67.00;22.50;96342.00;;;;5071345;28;20250;-81
2023/09/13 04:31:37;;;;;;;2.67;2.47;;;23.00;67.10;22.50;96357.00;;;;5077438;28;20220;-82
2023/09/13 04:34:05;;;;;;;2.47;2.27;;;22.90;67.20;22.50;96351.00;;;;5074494;28;20188;-83
2023/09/13 04:36:33;;;;;;;3.17;2.70;;;23.00;67.30;22.50;96354.00;;;;5080504;28;20230;-82
2023/09/13 04:39:00;;;;;;;2.90;2.70;;;23.00;67.30;22.50;96364.00;;;;5082725;28;20210;-83
2023/09/13 04:41:27;;;;;;;3.60;3.30;;;23.00;68.20;22.50;96367.00;;;;5073574;28;20190;-83
2023/09/13 04:43:55;;;;;;;2.77;2.57;;;23.00;67.50;22.50;96371.00;;;;5073548;28;20797;-83
2023/09/13 04:46:22;;;;;;;2.77;2.57;;;23.00;67.40;22.50;96370.00;;;;5085142;28;20215;-83
2023/09/13 04:48:49;;;;;;;2.33;2.13;;;23.00;67.30;22.50;96369.00;;;;5069658;28;20284;-83
2023/09/13 04:51:17;;;;;;;3.07;2.50;;;23.00;67.40;22.50;96374.00;;;;5092017;28;20204;-83
2023/09/13 04:53:45;;;;;;;2.43;2.23;;;23.00;67.60;22.50;96379.00;;;;5094583;28;20196;-83
2023/09/13 04:56:12;;;;;;;2.80;2.60;;;23.10;67.50;22.50;96378.00;;;;5078035;28;20221;-83
2023/09/13 04:58:39;;;;;;;3.33;2.47;;;23.10;67.40;22.50;96381.00;;;;5094191;28;20192;-82
2023/09/13 05:01:06;;;;;;;2.33;2.13;;;23.10;67.50;22.60;96380.00;;;;5094178;28;20200;-82
2023/09/13 05:03:34;;;;;;;3.43;2.30;;;23.10;67.60;22.60;96384.00;;;;5090588;28;20198;-82
2023/09/13 05:06:01;;;;;;;2.17;1.97;;;23.10;67.60;22.60;96393.00;;;;5092610;28;20215;-83
2023/09/13 05:08:28;;;;;;;2.90;2.70;;;23.10;67.60;22.60;96384.00;;;;5093619;28;20196;-83
2023/09/13 05:10:56;;;;;;;2.80;2.47;;;23.10;67.60;22.60;96383.00;;;;5093322;28;20194;-83
2023/09/13 05:13:23;;;;;;;2.90;2.20;;;23.10;67.70;22.60;96381.00;;;;5094108;28;20281;-83
2023/09/13 05:15:51;;;;;;;2.80;2.50;;;23.10;67.60;22.70;96378.00;;;;5092586;28;20221;-83
2023/09/13 05:18:19;;;;;;;2.40;2.23;;;23.20;67.70;22.70;96370.00;;;;5093229;28;20292;-82
2023/09/13 05:20:46;;;;;;;2.30;2.10;;;23.20;67.80;22.70;96382.00;;;;5088270;28;20196;-82
2023/09/13 05:23:13;;;;;;;2.20;2.10;;;23.20;68.60;22.70;96389.00;;;;5090095;28;20689;-82
2023/09/13 05:25:45;;;;;;;3.20;2.37;;;23.20;67.90;22.70;96392.00;;;;5082954;28;20223;-82
2023/09/13 05:28:14;;;;;;;2.43;2.33;;;23.30;68.00;22.70;96390.00;;;;5074373;28;20199;-82
2023/09/13 05:30:42;;;;;;;2.50;2.30;;;23.20;67.90;22.80;96404.00;;;;5080762;28;20209;-82
2023/09/13 05:33:09;;;;;;;2.73;2.50;;;23.30;67.90;22.80;96406.00;;;;5094628;28;20711;-82
2023/09/13 05:35:36;;;;;;;2.50;2.27;;;23.30;67.90;22.80;96398.00;;;;5093720;28;20229;-82
2023/09/13 05:38:03;;;;;;;3.57;2.30;;;23.30;68.00;22.80;96405.00;;;;5092981;28;20195;-82
2023/09/13 05:40:32;;;;;;;2.27;2.07;;;23.30;68.00;22.80;96412.00;;;;5085799;28;20724;-83
2023/09/13 05:42:59;;;;;;;2.87;2.47;;;23.30;68.10;22.90;96416.00;;;;5079385;28;20198;-82
2023/09/13 05:45:28;;;;;;;2.37;2.17;;;23.30;68.30;22.90;96426.00;;;;5082630;28;20215;-82
2023/09/13 05:47:55;;;;;;;2.23;2.13;;;23.40;68.40;22.90;96429.00;;;;5092045;28;20622;-82
2023/09/13 05:50:22;;;;;;;2.53;2.33;;;23.40;68.30;22.90;96429.00;;;;5092242;28;20201;-81
2023/09/13 05:52:51;;;;;;;2.40;2.20;;;23.40;68.20;22.90;96444.00;;;;5091059;28;20204;-82
2023/09/13 05:55:18;;;;;;;5.23;2.27;;;23.40;68.10;22.90;96446.00;;;;5078865;28;20226;-82
2023/09/13 05:57:46;;;;;;;3.20;2.43;;;23.40;68.10;22.90;96453.00;;;;5082153;28;20197;-83
2023/09/13 06:00:16;;;;;;;2.80;2.60;;;23.40;68.10;22.90;96447.00;;;;5093448;28;20198;-83
2023/09/13 06:02:44;;;;;;;2.40;2.20;;;23.40;68.00;23.00;96449.00;;;;5089258;28;20201;-82
2023/09/13 06:05:12;;;;;;;3.37;2.20;;;23.40;67.90;23.00;96449.00;;;;5075407;28;20226;-83
2023/09/13 06:07:39;;;;;;;2.60;2.40;;;23.40;68.00;23.00;96444.00;;;;5093051;28;20218;-83
2023/09/13 06:10:10;;;;;;;2.50;2.30;;;23.50;68.10;23.00;96447.00;;;;5092918;28;20585;-83
2023/09/13 06:12:38;;;;;;;2.57;2.30;;;23.50;68.30;23.00;96446.00;;;;5096069;28;20202;-83
2023/09/13 06:15:07;;;;;;;2.43;2.33;;;23.50;68.40;23.10;96457.00;;;;5091959;28;20289;-83
2023/09/13 06:17:36;;;;;;;3.93;2.47;;;23.50;68.50;23.10;96450.00;;;;5090893;28;20218;-83
2023/09/13 06:20:07;;;;;;;2.47;2.23;;;23.50;68.60;23.10;96442.00;;;;5083896;28;20202;-83
2023/09/13 06:22:34;;;;;;;2.50;2.30;;;23.60;68.70;23.10;96445.00;;;;5091997;28;20675;-83
2023/09/13 06:25:02;;;;;;;3.17;2.40;;;23.60;68.60;23.20;96454.00;;;;5081007;28;20204;-83
2023/09/13 06:27:29;;;;;;;2.67;2.47;;;23.60;68.70;23.20;96447.00;;;;5083209;28;20196;-84
2023/09/13 06:29:57;;;;;;;2.53;2.20;;;23.60;68.90;23.20;96454.00;;;;5075817;28;20283;-82
2023/09/13 06:32:24;;;;;;;4.43;2.07;;;23.60;69.20;23.20;96448.00;;;;5077359;28;20651;-84
2023/09/13 06:34:58;;;;;;;2.60;2.40;;;23.60;69.40;23.20;96446.00;;;;5075066;28;20195;-85
2023/09/13 06:37:26;;;;;;;2.40;2.20;;;23.70;69.80;23.20;96452.00;;;;5082714;28;20248;-84
2023/09/13 06:39:55;;;;;;;2.23;2.13;;;23.70;69.90;23.20;96450.00;;;;5089622;28;20566;-84
2023/09/13 06:42:23;;;;;;;2.27;2.07;;;23.70;70.10;23.20;96442.00;;;;5090303;28;20222;-83
2023/09/13 06:44:50;;;;;;;3.67;2.40;;;23.70;70.10;23.30;96444.00;;;;5082459;28;20201;-84
2023/09/13 06:47:17;;;;;;;2.93;2.73;;;23.70;70.10;23.30;96432.00;;;;5083718;28;20195;-84
2023/09/13 06:49:44;;;;;;;2.97;2.67;;;23.70;70.10;23.30;96439.00;;;;5088947;28;20562;-84
2023/09/13 06:52:12;;;;;;;2.90;2.17;;;23.80;70.10;23.30;96445.00;;;;5083107;28;20205;-84
2023/09/13 06:54:40;;;;;;;2.50;2.23;;;23.80;70.30;23.40;96450.00;;;;5092277;28;20543;-84
2023/09/13 06:57:08;;;;;;;2.47;2.27;;;23.80;70.50;23.40;96442.00;;;;5091729;28;20231;-84
2023/09/13 06:59:36;;;;;;;2.67;2.47;;;23.80;70.40;23.40;96452.00;;;;5092870;28;20599;-83
2023/09/13 07:02:03;;;;;;;2.90;2.60;;;23.80;70.40;23.40;96453.00;;;;5069072;28;20202;-83
2023/09/13 07:04:31;;;;;;;7.93;2.70;;;23.90;70.40;23.40;96455.00;;;;5086667;28;20203;-84
2023/09/13 07:06:58;;;;;;;2.63;2.43;;;23.90;70.50;23.40;96467.00;;;;5091622;28;20219;-83
2023/09/13 07:09:25;;;;;;;3.43;3.13;;;23.90;70.70;23.40;96470.00;;;;5084136;28;20195;-83
2023/09/13 07:11:54;;;;;;;2.80;2.60;;;23.80;70.80;23.40;96471.00;;;;5076156;28;20199;-84
2023/09/13 07:14:21;;;;;;;3.27;2.83;;;23.90;70.90;23.40;96474.00;;;;5074154;28;20286;-83
2023/09/13 07:16:49;;;;;;;2.70;2.50;;;23.90;71.50;23.50;96485.00;;;;5091552;28;20229;-83
2023/09/13 07:19:16;;;;;;;3.13;2.63;;;23.90;70.90;23.50;96495.00;;;;5090492;28;20206;-83
2023/09/13 07:21:43;;;;;;;2.97;2.77;;;23.90;71.00;23.50;96499.00;;;;5091950;28;20195;-84
2023/09/13 07:24:12;;;;;;;2.97;2.53;;;23.90;71.00;23.50;96501.00;;;;5090724;28;20195;-82
2023/09/13 07:26:39;;;;;;;3.47;2.90;;;24.00;71.30;23.50;96494.00;;;;5075425;28;20708;-82
2023/09/13 07:29:10;;;;;;;3.13;2.70;;;24.00;71.10;23.50;96497.00;;;;5087378;28;20194;-82
2023/09/13 07:31:37;;;;;;;3.73;2.90;;;24.00;71.40;23.60;96505.00;;;;5080367;28;20200;-82
2023/09/13 07:34:05;;;;;;;3.07;2.83;;;24.00;71.30;23.60;96508.00;;;;5080544;28;20673;-82
2023/09/13 07:36:32;;;;;;;3.40;3.10;;;24.00;71.10;23.60;96501.00;;;;5085147;28;20219;-82
2023/09/13 07:39:00;;;;;;;3.47;2.90;;;24.10;71.00;23.70;96506.00;;;;5097619;28;20199;-82
2023/09/13 07:41:27;;;;;;;4.97;3.33;;;24.10;71.30;23.70;96509.00;;;;5093664;28;20202;-82
2023/09/13 07:43:55;;;;;;;2.67;2.47;;;24.10;71.30;23.70;96501.00;;;;5109597;28;20206;-82
2023/09/13 07:46:24;;;;;;;3.23;3.03;;;24.10;71.30;23.80;96495.00;;;;5101839;28;20257;-82
2023/09/13 07:48:51;;;;;;;3.50;2.57;;;24.20;71.60;23.80;96503.00;;;;5092066;28;20206;-81
2023/09/13 07:51:18;;;;;;;2.77;2.40;;;24.20;71.60;23.90;96505.00;;;;5089488;28;20199;-82
2023/09/13 07:53:46;;;;;;;4.27;2.83;;;24.30;71.70;23.90;96499.00;;;;5090903;28;20191;-82
2023/09/13 07:56:14;;;;;;;3.47;3.17;;;24.30;71.60;24.00;96496.00;;;;5089956;28;20262;-82
2023/09/13 07:58:42;;;;;;;3.70;2.97;;;24.40;71.70;24.00;96509.00;;;;5091054;28;20278;-82
2023/09/13 08:01:09;;;;;;;5.20;3.00;;;24.40;71.70;24.10;96515.00;;;;5091996;28;20240;-82
2023/09/13 08:03:37;;;;;;;4.00;3.33;;;24.50;71.70;24.20;96513.00;;;;5085319;28;20195;-81
2023/09/13 08:06:04;;;;;;;3.40;3.10;;;24.50;71.60;24.30;96519.00;;;;5093113;28;20691;-81
2023/09/13 08:08:33;;;;;;;4.17;2.93;;;24.60;71.60;24.30;96519.00;;;;5088627;28;20585;-82
2023/09/13 08:11:00;;;;;;;3.87;3.57;;;24.70;71.50;24.40;96516.00;;;;5087655;28;20202;-82
2023/09/13 08:13:27;;;;;;;3.17;2.90;;;24.70;71.30;24.40;96514.00;;;;5084537;28;20193;-82
2023/09/13 08:15:56;;;;;;;3.30;2.90;;;24.80;71.20;24.50;96523.00;;;;5079596;28;20212;-82
2023/09/13 08:18:24;;;;;;;3.20;3.00;;;24.80;71.30;24.60;96527.00;;;;5086718;28;20985;-81
2023/09/13 08:20:53;;;;;;;5.90;3.30;;;24.90;71.10;24.60;96531.00;;;;5096936;28;20194;-82
2023/09/13 08:23:20;;;;;;;4.80;3.50;;;24.90;70.90;24.70;96531.00;;;;5087714;28;20672;-81
2023/09/13 08:25:47;;;;;;;3.13;2.93;;;25.00;70.80;24.70;96540.00;;;;5090088;28;20212;-82
2023/09/13 08:28:16;;;;;;;4.63;3.47;;;25.10;71.60;24.70;96536.00;;;;5082532;28;20209;-81
2023/09/13 08:30:44;;;;;;;4.50;3.30;;;25.10;70.80;24.80;96541.00;;;;5078168;28;20221;-82
2023/09/13 08:33:11;;;;;;;3.73;3.20;;;25.20;70.80;24.90;96543.00;;;;5077082;28;20242;-81
2023/09/13 08:35:39;;;;;;;3.53;3.23;;;25.20;70.90;24.90;96546.00;;;;5079676;28;20228;-82
2023/09/13 08:38:08;;;;;;;4.00;3.70;;;25.20;70.80;25.00;96544.00;;;;5076505;28;20239;-81
2023/09/13 08:40:41;;;;;;;3.90;3.60;;;25.30;70.90;25.10;96546.00;;;;5076723;28;20579;-82
2023/09/13 08:43:10;;;;;;;3.70;3.33;;;25.40;71.00;25.20;96553.00;;;;5075569;28;20204;-81
2023/09/13 08:45:39;;;;;;;3.83;3.47;;;25.40;71.10;25.30;96550.00;;;;5092522;28;20214;-82
2023/09/13 08:48:09;;;;;;;3.80;3.50;;;25.50;71.00;25.40;96555.00;;;;5086141;28;20203;-82
2023/09/13 08:50:39;;;;;;;5.40;3.63;;;25.60;71.10;25.40;96560.00;;;;5095171;28;20202;-82
2023/09/13 08:53:12;;;;;;;5.97;3.67;;;25.70;70.90;25.50;96560.00;;;;5092290;28;20188;-81
2023/09/13 08:55:40;;;;;;;3.40;3.10;;;25.80;70.50;25.60;96567.00;;;;5095750;28;20223;-82
2023/09/13 08:58:07;;;;;;;4.93;3.63;;;25.80;70.30;25.60;96567.00;;;;5093354;28;20230;-81
2023/09/13 09:00:40;;;;;;;3.30;3.10;;;25.90;70.20;25.60;96564.00;;;;5095560;28;20300;-82
2023/09/13 09:03:12;;;;;;;3.93;3.53;;;26.00;70.10;25.70;96566.00;;;;5093456;28;20830;-81
2023/09/13 09:05:41;;;;;;;3.23;3.03;;;26.00;69.30;25.70;96561.00;;;;5101276;28;20215;-81
2023/09/13 09:08:11;;;;;;;4.23;2.90;;;26.00;69.30;25.70;96565.00;;;;5101236;28;20206;-82
2023/09/13 09:10:40;;;;;;;3.33;3.03;;;26.00;69.40;25.70;96570.00;;;;5103669;28;20199;-82
2023/09/13 09:13:11;;;;;;;4.00;3.37;;;26.00;69.70;25.70;96566.00;;;;5102637;28;20206;-82
2023/09/13 09:15:41;;;;;;;3.47;3.17;;;26.00;69.40;25.70;96572.00;;;;5099379;28;20294;-81
2023/09/13 09:18:13;;;;;;;3.40;3.03;;;26.00;69.10;25.70;96577.00;;;;5099261;28;20338;-82
2023/09/13 09:20:41;;;;;;;3.97;3.67;;;26.10;69.40;25.70;96559.00;;;;5094908;28;20278;-81
2023/09/13 09:23:18;;;;;;;3.70;3.33;;;26.10;69.10;25.70;96566.00;;;;5093171;28;20195;-82
2023/09/13 09:25:46;;;;;;;3.50;3.20;;;26.10;69.10;25.70;96570.00;;;;5092712;28;20211;-82
2023/09/13 09:28:14;;;;;;;4.03;3.63;;;26.10;68.40;25.70;96564.00;;;;5094486;28;20726;-82
2023/09/13 09:30:41;;;;;;;5.53;3.53;;;26.10;68.40;25.80;96564.00;;;;5095079;28;20294;-82
2023/09/13 09:33:10;;;;;;;3.27;3.07;;;26.10;68.50;25.80;96561.00;;;;5094148;28;20203;-82
2023/09/13 09:35:37;;;;;;;3.13;2.83;;;26.10;68.40;25.80;96563.00;;;;5093148;28;20659;-82
2023/09/13 09:38:20;;;;;;;2.70;2.50;;;26.10;68.20;25.80;96558.00;;;;5088700;28;20736;-82
2023/09/13 09:40:49;;;;;;;3.10;2.90;;;26.10;67.90;25.80;96559.00;;;;5087345;28;20260;-82
2023/09/13 09:43:19;;;;;;;2.87;2.67;;;26.20;67.30;25.80;96568.00;;;;5084814;28;20276;-82
2023/09/13 09:45:46;;;;;;;3.03;2.83;;;26.20;67.20;25.90;96562.00;;;;5092723;28;20227;-82
2023/09/13 09:48:14;;;;;;;3.07;2.87;;;26.20;66.80;25.90;96555.00;;;;5092680;28;20202;-82
2023/09/13 09:50:46;;;;;;;4.33;3.10;;;26.20;67.60;25.90;96560.00;;;;5094097;28;20210;-82
2023/09/13 09:53:17;;;;;;;3.20;3.00;;;26.30;67.40;26.00;96554.00;;;;5094560;28;20203;-82
2023/09/13 09:55:46;;;;;;;3.50;3.20;;;26.30;67.20;26.00;96552.00;;;;5092722;28;20303;-82
2023/09/13 09:58:15;;;;;;;2.80;2.60;;;26.30;66.90;26.00;96554.00;;;;5094211;28;20219;-82
2023/09/13 10:00:51;;;;;;;3.27;2.97;;;26.30;67.30;26.10;96558.00;;;;5086623;28;20196;-82
2023/09/13 10:03:19;;;;;;;3.57;3.27;;;26.40;67.30;26.10;96558.00;;;;5094424;28;20210;-82
2023/09/13 10:05:55;;;;;;;3.33;3.10;;;26.40;67.60;26.20;96560.00;;;;5093830;28;20301;-82
2023/09/13 10:08:38;;;;;;;4.00;3.60;;;26.50;66.50;26.40;96560.00;;;;5093617;28;20353;-82
2023/09/13 10:11:06;;;;;;;3.00;2.80;;;26.60;66.60;26.50;96560.00;;;;5082455;28;20245;-82
2023/09/13 10:13:35;;;;;;;3.30;3.00;;;26.70;67.10;26.60;96561.00;;;;5087542;28;20285;-82
2023/09/13 10:16:02;;;;;;;2.90;2.70;;;26.80;67.30;26.70;96567.00;;;;5089953;28;20219;-82
2023/09/13 10:18:36;;;;;;;3.17;2.83;;;26.90;66.70;26.80;96559.00;;;;5074593;28;20311;-82
2023/09/13 10:21:06;;;;;;;2.92;2.72;;;27.00;66.10;26.90;96558.00;;;;5071675;28;20192;-82
2023/09/13 10:23:40;;;;;;;3.88;3.58;;;27.10;66.40;27.00;96556.00;;;;5072717;28;20192;-82
2023/09/13 10:26:13;;;;;;;3.25;2.90;;;27.20;65.60;27.10;96558.00;;;;5072613;28;20216;-81
2023/09/13 10:28:45;;;;;;;3.97;2.95;;;27.30;65.90;27.20;96555.00;;;;5072092;28;20196;-82
2023/09/13 10:31:18;;;;;;;3.40;3.10;;;27.40;65.00;27.30;96554.00;;;;5090424;28;20187;-82
2023/09/13 10:33:51;;;;;;;3.30;3.00;;;27.50;64.60;27.30;96555.00;;;;5085403;28;20191;-82
2023/09/13 10:36:27;;;;;;;2.63;2.42;;;27.60;65.00;27.40;96550.00;;;;5089480;28;20219;-82
2023/09/13 10:39:09;;;;;;;2.75;2.55;;;27.60;65.10;27.50;96553.00;;;;5091198;28;20218;-82
2023/09/13 10:41:48;;;;;;;3.65;2.40;;;27.70;64.10;27.60;96545.00;;;;5084872;28;20195;-83
2023/09/13 10:44:20;;;;;;;2.45;2.25;;;27.70;62.80;27.60;96541.00;;;;5093769;28;20668;-83
2023/09/13 10:46:48;;;;;;;2.35;2.20;;;27.80;63.50;27.70;96542.00;;;;5077681;28;20298;-82
2023/09/13 10:49:16;;;;;;;2.92;2.40;;;27.90;63.00;27.70;96548.00;;;;5080667;28;20687;-83
2023/09/13 10:51:44;;;;;;;2.00;1.90;;;27.90;62.60;27.70;96543.00;;;;5099517;28;20191;-83
2023/09/13 10:54:15;;;;;;;2.03;1.92;;;28.00;61.40;27.70;96545.00;;;;5089778;28;20191;-81
2023/09/13 10:56:43;;;;;;;2.30;2.20;;;28.00;60.30;27.70;96545.00;;;;5073158;28;20707;-82
2023/09/13 10:59:18;;;;;;;1.98;1.88;;;28.00;60.00;27.70;96547.00;;;;5074823;28;20353;-82
2023/09/13 11:01:47;;;;;;;1.90;1.80;;;28.00;60.10;27.70;96531.00;;;;5090638;28;20250;-83